sensor_id;sensor_type;location;lat;lon;timestamp;P1;durP1;ratioP1;P2;durP2;ratioP2
22240;SDS011;11289;52.524;13.694;2023-06-14T00:02:07;4.40;;;2.47;;
22240;SDS011;11289;52.524;13.694;2023-06-14T00:04:34;2.25;;;2.05;;
22240;SDS011;11289;52.524;13.694;2023-06-14T00:07:01;4.28;;;2.28;;
22240;SDS011;11289;52.524;13.694;2023-06-14T00:09:27;4.75;;;2.58;;
22240;SDS011;11289;52.524;13.694;2023-06-14T00:11:53;3.08;;;1.80;;
22240;SDS011;11289;52.524;13.694;2023-06-14T00:14:19;3.05;;;1.75;;
22240;SDS011;11289;52.524;13.694;2023-06-14T00:16:45;3.50;;;1.80;;
22240;SDS011;11289;52.524;13.694;2023-06-14T00:19:11;4.80;;;2.00;;
22240;SDS011;11289;52.524;13.694;2023-06-14T00:21:37;3.50;;;2.20;;
22240;SDS011;11289;52.524;13.694;2023-06-14T00:24:04;3.47;;;1.90;;
22240;SDS011;11289;52.524;13.694;2023-06-14T00:26:30;5.97;;;2.30;;
22240;SDS011;11289;52.524;13.694;2023-06-14T00:28:56;5.85;;;2.10;;
22240;SDS011;11289;52.524;13.694;2023-06-14T00:31:22;2.97;;;1.90;;
22240;SDS011;11289;52.524;13.694;2023-06-14T00:33:48;5.47;;;2.65;;
22240;SDS011;11289;52.524;13.694;2023-06-14T00:36:14;3.10;;;2.42;;
22240;SDS011;11289;52.524;13.694;2023-06-14T00:38:40;4.13;;;3.03;;
22240;SDS011;11289;52.524;13.694;2023-06-14T00:41:06;4.43;;;3.03;;
22240;SDS011;11289;52.524;13.694;2023-06-14T00:43:33;3.63;;;2.85;;
22240;SDS011;11289;52.524;13.694;2023-06-14T00:46:00;4.68;;;2.70;;
22240;SDS011;11289;52.524;13.694;2023-06-14T00:48:26;5.45;;;2.90;;
22240;SDS011;11289;52.524;13.694;2023-06-14T00:50:54;6.25;;;2.80;;
22240;SDS011;11289;52.524;13.694;2023-06-14T00:53:20;6.72;;;2.88;;
22240;SDS011;11289;52.524;13.694;2023-06-14T00:55:48;4.07;;;2.40;;
22240;SDS011;11289;52.524;13.694;2023-06-14T00:58:14;7.00;;;3.47;;
22240;SDS011;11289;52.524;13.694;2023-06-14T01:00:41;5.75;;;3.33;;
22240;SDS011;11289;52.524;13.694;2023-06-14T01:03:07;5.15;;;3.05;;
22240;SDS011;11289;52.524;13.694;2023-06-14T01:05:37;5.55;;;3.30;;
22240;SDS011;11289;52.524;13.694;2023-06-14T01:11:21;5.43;;;3.15;;
22240;SDS011;11289;52.524;13.694;2023-06-14T01:13:47;3.75;;;2.92;;
22240;SDS011;11289;52.524;13.694;2023-06-14T01:16:16;3.90;;;3.35;;
22240;SDS011;11289;52.524;13.694;2023-06-14T01:18:43;5.90;;;3.47;;
22240;SDS011;11289;52.524;13.694;2023-06-14T01:21:23;7.88;;;3.40;;
22240;SDS011;11289;52.524;13.694;2023-06-14T01:23:50;5.38;;;3.58;;
22240;SDS011;11289;52.524;13.694;2023-06-14T01:26:19;6.80;;;3.35;;
22240;SDS011;11289;52.524;13.694;2023-06-14T01:28:46;6.88;;;3.75;;
22240;SDS011;11289;52.524;13.694;2023-06-14T01:31:16;4.38;;;3.75;;
22240;SDS011;11289;52.524;13.694;2023-06-14T01:33:43;4.43;;;3.58;;
22240;SDS011;11289;52.524;13.694;2023-06-14T01:36:10;8.02;;;4.07;;
22240;SDS011;11289;52.524;13.694;2023-06-14T01:38:37;5.38;;;3.42;;
22240;SDS011;11289;52.524;13.694;2023-06-14T01:41:04;5.20;;;3.90;;
22240;SDS011;11289;52.524;13.694;2023-06-14T01:43:31;5.47;;;3.97;;
22240;SDS011;11289;52.524;13.694;2023-06-14T01:45:59;4.78;;;3.58;;
22240;SDS011;11289;52.524;13.694;2023-06-14T01:48:26;5.13;;;3.38;;
22240;SDS011;11289;52.524;13.694;2023-06-14T01:50:52;4.32;;;3.38;;
22240;SDS011;11289;52.524;13.694;2023-06-14T01:53:18;5.15;;;3.72;;
22240;SDS011;11289;52.524;13.694;2023-06-14T01:55:45;7.40;;;3.70;;
22240;SDS011;11289;52.524;13.694;2023-06-14T01:58:14;5.00;;;3.85;;
22240;SDS011;11289;52.524;13.694;2023-06-14T02:00:44;5.65;;;3.78;;
22240;SDS011;11289;52.524;13.694;2023-06-14T02:03:11;6.40;;;4.10;;
22240;SDS011;11289;52.524;13.694;2023-06-14T02:05:38;5.72;;;4.03;;
22240;SDS011;11289;52.524;13.694;2023-06-14T02:08:05;4.55;;;3.50;;
22240;SDS011;11289;52.524;13.694;2023-06-14T02:10:32;5.20;;;3.63;;
22240;SDS011;11289;52.524;13.694;2023-06-14T02:12:58;5.35;;;3.65;;
22240;SDS011;11289;52.524;13.694;2023-06-14T02:15:24;4.18;;;3.65;;
22240;SDS011;11289;52.524;13.694;2023-06-14T02:17:50;6.60;;;4.20;;
22240;SDS011;11289;52.524;13.694;2023-06-14T02:20:16;5.50;;;4.30;;
22240;SDS011;11289;52.524;13.694;2023-06-14T02:22:42;6.25;;;4.25;;
22240;SDS011;11289;52.524;13.694;2023-06-14T02:25:08;6.20;;;3.83;;
22240;SDS011;11289;52.524;13.694;2023-06-14T02:27:34;7.53;;;3.92;;
22240;SDS011;11289;52.524;13.694;2023-06-14T02:30:00;4.13;;;3.70;;
22240;SDS011;11289;52.524;13.694;2023-06-14T02:32:26;8.25;;;4.50;;
22240;SDS011;11289;52.524;13.694;2023-06-14T02:34:53;5.47;;;3.83;;
22240;SDS011;11289;52.524;13.694;2023-06-14T02:37:20;6.20;;;4.40;;
22240;SDS011;11289;52.524;13.694;2023-06-14T02:39:46;5.90;;;4.38;;
22240;SDS011;11289;52.524;13.694;2023-06-14T02:42:12;5.60;;;4.00;;
22240;SDS011;11289;52.524;13.694;2023-06-14T02:44:38;4.82;;;3.95;;
22240;SDS011;11289;52.524;13.694;2023-06-14T02:47:04;6.13;;;4.43;;
22240;SDS011;11289;52.524;13.694;2023-06-14T02:49:30;5.88;;;4.63;;
22240;SDS011;11289;52.524;13.694;2023-06-14T02:51:56;5.82;;;4.72;;
22240;SDS011;11289;52.524;13.694;2023-06-14T02:54:22;5.72;;;4.22;;
22240;SDS011;11289;52.524;13.694;2023-06-14T02:56:48;7.03;;;3.85;;
22240;SDS011;11289;52.524;13.694;2023-06-14T02:59:15;6.63;;;4.85;;
22240;SDS011;11289;52.524;13.694;2023-06-14T03:01:42;6.03;;;4.55;;
22240;SDS011;11289;52.524;13.694;2023-06-14T03:04:08;6.28;;;5.03;;
22240;SDS011;11289;52.524;13.694;2023-06-14T03:06:34;5.93;;;4.40;;
22240;SDS011;11289;52.524;13.694;2023-06-14T03:09:01;5.63;;;4.35;;
22240;SDS011;11289;52.524;13.694;2023-06-14T03:11:30;8.77;;;4.57;;
22240;SDS011;11289;52.524;13.694;2023-06-14T03:13:57;8.50;;;5.10;;
22240;SDS011;11289;52.524;13.694;2023-06-14T03:16:23;7.15;;;4.65;;
22240;SDS011;11289;52.524;13.694;2023-06-14T03:18:53;7.40;;;4.97;;
22240;SDS011;11289;52.524;13.694;2023-06-14T03:21:19;8.40;;;5.20;;
22240;SDS011;11289;52.524;13.694;2023-06-14T03:23:48;10.18;;;5.68;;
22240;SDS011;11289;52.524;13.694;2023-06-14T03:26:15;10.77;;;4.93;;
22240;SDS011;11289;52.524;13.694;2023-06-14T03:28:43;9.52;;;5.22;;
22240;SDS011;11289;52.524;13.694;2023-06-14T03:31:15;5.80;;;4.80;;
22240;SDS011;11289;52.524;13.694;2023-06-14T03:33:41;5.65;;;4.85;;
22240;SDS011;11289;52.524;13.694;2023-06-14T03:36:08;6.90;;;5.80;;
22240;SDS011;11289;52.524;13.694;2023-06-14T03:38:34;6.50;;;5.60;;
22240;SDS011;11289;52.524;13.694;2023-06-14T03:41:00;10.38;;;5.15;;
22240;SDS011;11289;52.524;13.694;2023-06-14T03:43:27;7.78;;;5.65;;
22240;SDS011;11289;52.524;13.694;2023-06-14T03:45:53;8.40;;;4.95;;
22240;SDS011;11289;52.524;13.694;2023-06-14T03:48:19;12.57;;;6.00;;
22240;SDS011;11289;52.524;13.694;2023-06-14T03:50:45;10.82;;;4.93;;
22240;SDS011;11289;52.524;13.694;2023-06-14T03:53:11;7.45;;;4.93;;
22240;SDS011;11289;52.524;13.694;2023-06-14T03:55:37;6.30;;;5.50;;
22240;SDS011;11289;52.524;13.694;2023-06-14T03:58:03;10.77;;;6.47;;
22240;SDS011;11289;52.524;13.694;2023-06-14T04:00:30;12.15;;;7.38;;
22240;SDS011;11289;52.524;13.694;2023-06-14T04:02:56;11.05;;;6.28;;
22240;SDS011;11289;52.524;13.694;2023-06-14T04:05:22;13.57;;;8.43;;
22240;SDS011;11289;52.524;13.694;2023-06-14T04:07:52;10.65;;;6.95;;
22240;SDS011;11289;52.524;13.694;2023-06-14T04:10:21;10.57;;;6.70;;
22240;SDS011;11289;52.524;13.694;2023-06-14T04:12:47;12.18;;;6.30;;
22240;SDS011;11289;52.524;13.694;2023-06-14T04:15:13;8.25;;;6.30;;
22240;SDS011;11289;52.524;13.694;2023-06-14T04:17:39;10.57;;;7.18;;
22240;SDS011;11289;52.524;13.694;2023-06-14T04:20:05;13.13;;;7.50;;
22240;SDS011;11289;52.524;13.694;2023-06-14T04:22:33;9.60;;;7.22;;
22240;SDS011;11289;52.524;13.694;2023-06-14T04:25:00;12.48;;;7.50;;
22240;SDS011;11289;52.524;13.694;2023-06-14T04:27:26;8.27;;;6.57;;
22240;SDS011;11289;52.524;13.694;2023-06-14T04:29:54;11.18;;;6.47;;
22240;SDS011;11289;52.524;13.694;2023-06-14T04:32:25;11.85;;;6.60;;
22240;SDS011;11289;52.524;13.694;2023-06-14T04:34:55;11.52;;;5.72;;
22240;SDS011;11289;52.524;13.694;2023-06-14T04:37:23;7.15;;;6.35;;
22240;SDS011;11289;52.524;13.694;2023-06-14T04:39:49;10.88;;;6.50;;
22240;SDS011;11289;52.524;13.694;2023-06-14T04:42:16;10.68;;;6.25;;
22240;SDS011;11289;52.524;13.694;2023-06-14T04:44:42;7.35;;;5.90;;
22240;SDS011;11289;52.524;13.694;2023-06-14T04:47:09;8.73;;;6.97;;
22240;SDS011;11289;52.524;13.694;2023-06-14T04:49:36;8.80;;;6.53;;
22240;SDS011;11289;52.524;13.694;2023-06-14T04:52:03;9.40;;;6.05;;
22240;SDS011;11289;52.524;13.694;2023-06-14T04:54:29;8.02;;;5.95;;
22240;SDS011;11289;52.524;13.694;2023-06-14T04:56:57;8.45;;;6.30;;
22240;SDS011;11289;52.524;13.694;2023-06-14T04:59:23;6.97;;;5.53;;
22240;SDS011;11289;52.524;13.694;2023-06-14T05:01:49;9.02;;;6.97;;
22240;SDS011;11289;52.524;13.694;2023-06-14T05:04:16;8.90;;;6.32;;
22240;SDS011;11289;52.524;13.694;2023-06-14T05:06:42;13.55;;;6.40;;
22240;SDS011;11289;52.524;13.694;2023-06-14T05:09:15;9.07;;;6.32;;
22240;SDS011;11289;52.524;13.694;2023-06-14T05:11:42;9.63;;;7.22;;
22240;SDS011;11289;52.524;13.694;2023-06-14T05:14:10;10.02;;;5.97;;
22240;SDS011;11289;52.524;13.694;2023-06-14T05:16:37;11.02;;;5.93;;
22240;SDS011;11289;52.524;13.694;2023-06-14T05:19:05;6.88;;;5.75;;
22240;SDS011;11289;52.524;13.694;2023-06-14T05:21:31;7.80;;;6.30;;
22240;SDS011;11289;52.524;13.694;2023-06-14T05:23:59;7.97;;;6.28;;
22240;SDS011;11289;52.524;13.694;2023-06-14T05:26:25;9.77;;;6.20;;
22240;SDS011;11289;52.524;13.694;2023-06-14T05:28:57;10.00;;;5.93;;
22240;SDS011;11289;52.524;13.694;2023-06-14T05:31:24;11.20;;;6.30;;
22240;SDS011;11289;52.524;13.694;2023-06-14T05:33:52;12.02;;;5.55;;
22240;SDS011;11289;52.524;13.694;2023-06-14T05:36:19;12.05;;;6.35;;
22240;SDS011;11289;52.524;13.694;2023-06-14T05:38:46;8.02;;;6.25;;
22240;SDS011;11289;52.524;13.694;2023-06-14T05:41:12;12.82;;;6.30;;
22240;SDS011;11289;52.524;13.694;2023-06-14T05:43:38;9.20;;;6.03;;
22240;SDS011;11289;52.524;13.694;2023-06-14T05:46:04;9.80;;;5.93;;
22240;SDS011;11289;52.524;13.694;2023-06-14T05:48:30;10.32;;;6.20;;
22240;SDS011;11289;52.524;13.694;2023-06-14T05:50:57;12.25;;;6.13;;
22240;SDS011;11289;52.524;13.694;2023-06-14T05:53:23;8.02;;;5.63;;
22240;SDS011;11289;52.524;13.694;2023-06-14T05:55:49;12.57;;;6.18;;
22240;SDS011;11289;52.524;13.694;2023-06-14T05:58:18;8.52;;;6.20;;
22240;SDS011;11289;52.524;13.694;2023-06-14T06:00:45;8.07;;;6.00;;
22240;SDS011;11289;52.524;13.694;2023-06-14T06:03:11;9.10;;;6.35;;
22240;SDS011;11289;52.524;13.694;2023-06-14T06:05:38;10.57;;;6.13;;
22240;SDS011;11289;52.524;13.694;2023-06-14T06:08:05;13.27;;;6.10;;
22240;SDS011;11289;52.524;13.694;2023-06-14T06:10:31;9.10;;;5.55;;
22240;SDS011;11289;52.524;13.694;2023-06-14T06:12:57;11.25;;;6.50;;
22240;SDS011;11289;52.524;13.694;2023-06-14T06:15:23;10.10;;;6.18;;
22240;SDS011;11289;52.524;13.694;2023-06-14T06:17:53;8.13;;;6.05;;
22240;SDS011;11289;52.524;13.694;2023-06-14T06:20:19;10.30;;;5.60;;
22240;SDS011;11289;52.524;13.694;2023-06-14T06:22:45;9.30;;;5.82;;
22240;SDS011;11289;52.524;13.694;2023-06-14T06:25:10;10.00;;;5.60;;
22240;SDS011;11289;52.524;13.694;2023-06-14T06:27:36;10.38;;;5.97;;
22240;SDS011;11289;52.524;13.694;2023-06-14T06:30:03;9.98;;;5.25;;
22240;SDS011;11289;52.524;13.694;2023-06-14T06:32:31;9.85;;;5.28;;
22240;SDS011;11289;52.524;13.694;2023-06-14T06:34:57;11.32;;;5.85;;
22240;SDS011;11289;52.524;13.694;2023-06-14T06:40:02;14.00;;;5.57;;
22240;SDS011;11289;52.524;13.694;2023-06-14T06:42:32;8.38;;;5.30;;
22240;SDS011;11289;52.524;13.694;2023-06-14T06:44:57;6.00;;;4.53;;
22240;SDS011;11289;52.524;13.694;2023-06-14T06:47:24;9.07;;;5.50;;
22240;SDS011;11289;52.524;13.694;2023-06-14T06:49:53;9.75;;;4.57;;
22240;SDS011;11289;52.524;13.694;2023-06-14T06:54:48;9.88;;;4.53;;
22240;SDS011;11289;52.524;13.694;2023-06-14T06:57:15;9.05;;;4.70;;
22240;SDS011;11289;52.524;13.694;2023-06-14T06:59:42;7.47;;;4.70;;
22240;SDS011;11289;52.524;13.694;2023-06-14T07:02:13;5.97;;;4.85;;
22240;SDS011;11289;52.524;13.694;2023-06-14T07:04:39;7.82;;;4.68;;
22240;SDS011;11289;52.524;13.694;2023-06-14T07:07:05;6.68;;;4.65;;
22240;SDS011;11289;52.524;13.694;2023-06-14T07:09:31;8.40;;;5.38;;
22240;SDS011;11289;52.524;13.694;2023-06-14T07:11:56;10.68;;;4.82;;
22240;SDS011;11289;52.524;13.694;2023-06-14T07:14:22;9.57;;;4.85;;
22240;SDS011;11289;52.524;13.694;2023-06-14T07:16:50;9.60;;;5.55;;
22240;SDS011;11289;52.524;13.694;2023-06-14T07:19:19;9.60;;;5.65;;
22240;SDS011;11289;52.524;13.694;2023-06-14T07:21:46;7.55;;;5.40;;
22240;SDS011;11289;52.524;13.694;2023-06-14T07:24:13;8.18;;;5.10;;
22240;SDS011;11289;52.524;13.694;2023-06-14T07:26:39;8.98;;;5.55;;
22240;SDS011;11289;52.524;13.694;2023-06-14T07:29:05;6.38;;;5.03;;
22240;SDS011;11289;52.524;13.694;2023-06-14T07:31:31;9.38;;;4.88;;
22240;SDS011;11289;52.524;13.694;2023-06-14T07:33:57;8.07;;;4.70;;
22240;SDS011;11289;52.524;13.694;2023-06-14T07:36:23;7.07;;;4.85;;
22240;SDS011;11289;52.524;13.694;2023-06-14T07:38:50;6.05;;;4.95;;
22240;SDS011;11289;52.524;13.694;2023-06-14T07:41:16;7.70;;;5.47;;
22240;SDS011;11289;52.524;13.694;2023-06-14T07:43:42;7.32;;;5.10;;
22240;SDS011;11289;52.524;13.694;2023-06-14T07:46:08;9.25;;;5.13;;
22240;SDS011;11289;52.524;13.694;2023-06-14T07:48:34;8.77;;;4.65;;
22240;SDS011;11289;52.524;13.694;2023-06-14T07:51:02;7.72;;;4.57;;
22240;SDS011;11289;52.524;13.694;2023-06-14T07:53:28;7.55;;;5.03;;
22240;SDS011;11289;52.524;13.694;2023-06-14T07:58:25;9.95;;;4.50;;
22240;SDS011;11289;52.524;13.694;2023-06-14T08:00:52;6.95;;;4.63;;
22240;SDS011;11289;52.524;13.694;2023-06-14T08:03:19;6.75;;;4.68;;
22240;SDS011;11289;52.524;13.694;2023-06-14T08:05:45;7.50;;;4.47;;
22240;SDS011;11289;52.524;13.694;2023-06-14T08:08:11;9.07;;;4.15;;
22240;SDS011;11289;52.524;13.694;2023-06-14T08:10:37;10.95;;;4.70;;
22240;SDS011;11289;52.524;13.694;2023-06-14T08:13:05;7.32;;;4.93;;
22240;SDS011;11289;52.524;13.694;2023-06-14T08:15:31;6.50;;;3.88;;
22240;SDS011;11289;52.524;13.694;2023-06-14T08:17:57;7.30;;;4.70;;
22240;SDS011;11289;52.524;13.694;2023-06-14T08:20:25;7.43;;;4.35;;
22240;SDS011;11289;52.524;13.694;2023-06-14T08:22:52;6.07;;;4.00;;
22240;SDS011;11289;52.524;13.694;2023-06-14T08:25:22;7.07;;;3.55;;
22240;SDS011;11289;52.524;13.694;2023-06-14T08:27:48;6.10;;;3.70;;
22240;SDS011;11289;52.524;13.694;2023-06-14T08:30:15;3.13;;;2.38;;
22240;SDS011;11289;52.524;13.694;2023-06-14T08:32:43;7.45;;;4.22;;
22240;SDS011;11289;52.524;13.694;2023-06-14T08:35:09;5.93;;;3.60;;
22240;SDS011;11289;52.524;13.694;2023-06-14T08:37:38;8.68;;;3.78;;
22240;SDS011;11289;52.524;13.694;2023-06-14T08:40:06;4.80;;;3.45;;
22240;SDS011;11289;52.524;13.694;2023-06-14T08:42:45;7.20;;;3.22;;
22240;SDS011;11289;52.524;13.694;2023-06-14T08:45:16;5.13;;;3.67;;
22240;SDS011;11289;52.524;13.694;2023-06-14T08:47:43;4.78;;;3.40;;
22240;SDS011;11289;52.524;13.694;2023-06-14T08:50:11;7.45;;;3.90;;
22240;SDS011;11289;52.524;13.694;2023-06-14T08:52:38;8.85;;;3.35;;
22240;SDS011;11289;52.524;13.694;2023-06-14T08:55:14;4.32;;;3.00;;
22240;SDS011;11289;52.524;13.694;2023-06-14T08:57:43;5.17;;;3.03;;
22240;SDS011;11289;52.524;13.694;2023-06-14T09:00:11;4.03;;;3.35;;
22240;SDS011;11289;52.524;13.694;2023-06-14T09:02:38;3.63;;;3.00;;
22240;SDS011;11289;52.524;13.694;2023-06-14T09:05:09;8.60;;;2.92;;
22240;SDS011;11289;52.524;13.694;2023-06-14T09:07:39;5.82;;;3.30;;
22240;SDS011;11289;52.524;13.694;2023-06-14T09:10:14;6.50;;;3.13;;
22240;SDS011;11289;52.524;13.694;2023-06-14T09:12:41;3.65;;;2.28;;
22240;SDS011;11289;52.524;13.694;2023-06-14T09:15:08;5.68;;;2.80;;
22240;SDS011;11289;52.524;13.694;2023-06-14T09:17:35;3.05;;;2.20;;
22240;SDS011;11289;52.524;13.694;2023-06-14T09:20:02;5.75;;;2.90;;
22240;SDS011;11289;52.524;13.694;2023-06-14T09:22:32;3.40;;;3.10;;
22240;SDS011;11289;52.524;13.694;2023-06-14T09:24:58;8.30;;;3.50;;
22240;SDS011;11289;52.524;13.694;2023-06-14T09:27:25;5.65;;;3.25;;
22240;SDS011;11289;52.524;13.694;2023-06-14T09:29:52;3.63;;;2.95;;
22240;SDS011;11289;52.524;13.694;2023-06-14T09:32:18;5.82;;;3.25;;
22240;SDS011;11289;52.524;13.694;2023-06-14T09:34:46;5.18;;;3.35;;
22240;SDS011;11289;52.524;13.694;2023-06-14T09:37:12;3.95;;;3.17;;
22240;SDS011;11289;52.524;13.694;2023-06-14T09:39:50;6.72;;;3.10;;
22240;SDS011;11289;52.524;13.694;2023-06-14T09:42:17;5.18;;;2.95;;
22240;SDS011;11289;52.524;13.694;2023-06-14T09:44:48;5.68;;;3.58;;
22240;SDS011;11289;52.524;13.694;2023-06-14T09:47:15;5.68;;;3.30;;
22240;SDS011;11289;52.524;13.694;2023-06-14T09:49:42;6.40;;;3.00;;
22240;SDS011;11289;52.524;13.694;2023-06-14T09:52:13;7.00;;;3.15;;
22240;SDS011;11289;52.524;13.694;2023-06-14T09:54:41;4.50;;;3.33;;
22240;SDS011;11289;52.524;13.694;2023-06-14T09:57:11;5.45;;;3.20;;
22240;SDS011;11289;52.524;13.694;2023-06-14T09:59:42;5.40;;;3.97;;
22240;SDS011;11289;52.524;13.694;2023-06-14T10:04:46;7.03;;;3.67;;
22240;SDS011;11289;52.524;13.694;2023-06-14T10:07:19;5.00;;;3.83;;
22240;SDS011;11289;52.524;13.694;2023-06-14T10:09:50;5.70;;;4.00;;
22240;SDS011;11289;52.524;13.694;2023-06-14T10:12:18;9.23;;;3.47;;
22240;SDS011;11289;52.524;13.694;2023-06-14T10:14:47;5.25;;;3.15;;
22240;SDS011;11289;52.524;13.694;2023-06-14T10:17:50;7.75;;;3.78;;
22240;SDS011;11289;52.524;13.694;2023-06-14T10:22:51;4.82;;;3.63;;
22240;SDS011;11289;52.524;13.694;2023-06-14T10:25:30;6.68;;;3.28;;
22240;SDS011;11289;52.524;13.694;2023-06-14T10:30:37;4.78;;;2.88;;
22240;SDS011;11289;52.524;13.694;2023-06-14T10:33:07;4.82;;;3.05;;
22240;SDS011;11289;52.524;13.694;2023-06-14T10:35:33;5.95;;;2.90;;
22240;SDS011;11289;52.524;13.694;2023-06-14T10:38:06;5.80;;;3.08;;
22240;SDS011;11289;52.524;13.694;2023-06-14T10:40:37;4.25;;;2.97;;
22240;SDS011;11289;52.524;13.694;2023-06-14T10:43:22;4.00;;;3.17;;
22240;SDS011;11289;52.524;13.694;2023-06-14T10:48:42;5.57;;;3.75;;
22240;SDS011;11289;52.524;13.694;2023-06-14T10:51:19;5.95;;;3.42;;
22240;SDS011;11289;52.524;13.694;2023-06-14T10:53:47;4.40;;;3.55;;
22240;SDS011;11289;52.524;13.694;2023-06-14T10:56:27;5.22;;;2.78;;
22240;SDS011;11289;52.524;13.694;2023-06-14T10:58:54;6.18;;;3.45;;
22240;SDS011;11289;52.524;13.694;2023-06-14T11:01:26;5.03;;;3.50;;
22240;SDS011;11289;52.524;13.694;2023-06-14T11:04:06;7.25;;;3.35;;
22240;SDS011;11289;52.524;13.694;2023-06-14T11:11:44;8.25;;;3.25;;
22240;SDS011;11289;52.524;13.694;2023-06-14T11:14:11;5.50;;;2.63;;
22240;SDS011;11289;52.524;13.694;2023-06-14T11:16:37;7.07;;;2.78;;
22240;SDS011;11289;52.524;13.694;2023-06-14T11:19:03;5.45;;;3.17;;
22240;SDS011;11289;52.524;13.694;2023-06-14T11:21:31;4.50;;;2.97;;
22240;SDS011;11289;52.524;13.694;2023-06-14T11:23:58;5.00;;;2.60;;
22240;SDS011;11289;52.524;13.694;2023-06-14T11:26:25;8.35;;;2.78;;
22240;SDS011;11289;52.524;13.694;2023-06-14T11:28:54;4.68;;;3.33;;
22240;SDS011;11289;52.524;13.694;2023-06-14T11:31:25;6.07;;;3.13;;
22240;SDS011;11289;52.524;13.694;2023-06-14T11:33:55;5.68;;;2.97;;
22240;SDS011;11289;52.524;13.694;2023-06-14T11:36:29;5.70;;;2.78;;
22240;SDS011;11289;52.524;13.694;2023-06-14T11:39:00;8.77;;;3.25;;
22240;SDS011;11289;52.524;13.694;2023-06-14T11:41:41;6.18;;;3.10;;
22240;SDS011;11289;52.524;13.694;2023-06-14T11:44:08;5.50;;;3.05;;
22240;SDS011;11289;52.524;13.694;2023-06-14T11:46:35;7.97;;;2.30;;
22240;SDS011;11289;52.524;13.694;2023-06-14T11:49:02;7.93;;;3.60;;
22240;SDS011;11289;52.524;13.694;2023-06-14T11:51:33;8.23;;;2.80;;
22240;SDS011;11289;52.524;13.694;2023-06-14T11:54:01;4.78;;;2.92;;
22240;SDS011;11289;52.524;13.694;2023-06-14T11:56:28;4.90;;;2.78;;
22240;SDS011;11289;52.524;13.694;2023-06-14T11:58:55;4.82;;;2.78;;
22240;SDS011;11289;52.524;13.694;2023-06-14T12:01:24;6.82;;;3.10;;
22240;SDS011;11289;52.524;13.694;2023-06-14T12:03:52;6.50;;;3.10;;
22240;SDS011;11289;52.524;13.694;2023-06-14T12:06:29;3.85;;;2.60;;
22240;SDS011;11289;52.524;13.694;2023-06-14T12:08:59;6.93;;;3.28;;
22240;SDS011;11289;52.524;13.694;2023-06-14T12:11:28;9.40;;;3.13;;
22240;SDS011;11289;52.524;13.694;2023-06-14T12:16:29;4.72;;;2.83;;
22240;SDS011;11289;52.524;13.694;2023-06-14T12:18:56;6.78;;;3.20;;
22240;SDS011;11289;52.524;13.694;2023-06-14T12:21:26;3.25;;;2.17;;
22240;SDS011;11289;52.524;13.694;2023-06-14T12:23:54;4.53;;;2.80;;
22240;SDS011;11289;52.524;13.694;2023-06-14T12:26:20;6.32;;;3.13;;
22240;SDS011;11289;52.524;13.694;2023-06-14T12:28:47;7.25;;;2.80;;
22240;SDS011;11289;52.524;13.694;2023-06-14T12:31:14;4.45;;;2.90;;
22240;SDS011;11289;52.524;13.694;2023-06-14T12:33:41;4.72;;;2.72;;
22240;SDS011;11289;52.524;13.694;2023-06-14T12:36:08;4.68;;;2.58;;
22240;SDS011;11289;52.524;13.694;2023-06-14T12:38:35;5.72;;;3.03;;
22240;SDS011;11289;52.524;13.694;2023-06-14T12:41:02;3.78;;;2.58;;
22240;SDS011;11289;52.524;13.694;2023-06-14T12:43:29;5.35;;;2.50;;
22240;SDS011;11289;52.524;13.694;2023-06-14T12:45:55;5.90;;;2.70;;
22240;SDS011;11289;52.524;13.694;2023-06-14T12:48:21;9.07;;;2.95;;
22240;SDS011;11289;52.524;13.694;2023-06-14T12:50:47;6.47;;;2.60;;
22240;SDS011;11289;52.524;13.694;2023-06-14T12:53:13;4.18;;;2.53;;
22240;SDS011;11289;52.524;13.694;2023-06-14T12:55:40;6.95;;;3.20;;
22240;SDS011;11289;52.524;13.694;2023-06-14T12:58:06;5.43;;;2.70;;
22240;SDS011;11289;52.524;13.694;2023-06-14T13:00:32;8.20;;;2.95;;
22240;SDS011;11289;52.524;13.694;2023-06-14T13:02:58;7.00;;;2.80;;
22240;SDS011;11289;52.524;13.694;2023-06-14T13:05:24;6.07;;;3.13;;
22240;SDS011;11289;52.524;13.694;2023-06-14T13:07:50;9.63;;;3.60;;
22240;SDS011;11289;52.524;13.694;2023-06-14T13:10:16;5.88;;;2.90;;
22240;SDS011;11289;52.524;13.694;2023-06-14T13:12:43;6.63;;;3.15;;
22240;SDS011;11289;52.524;13.694;2023-06-14T13:15:09;6.40;;;2.33;;
22240;SDS011;11289;52.524;13.694;2023-06-14T13:17:35;4.60;;;2.58;;
22240;SDS011;11289;52.524;13.694;2023-06-14T13:20:06;4.40;;;2.78;;
22240;SDS011;11289;52.524;13.694;2023-06-14T13:22:32;4.47;;;2.95;;
22240;SDS011;11289;52.524;13.694;2023-06-14T13:24:59;7.05;;;2.88;;
22240;SDS011;11289;52.524;13.694;2023-06-14T13:27:25;8.40;;;3.10;;
22240;SDS011;11289;52.524;13.694;2023-06-14T13:29:52;7.13;;;3.25;;
22240;SDS011;11289;52.524;13.694;2023-06-14T13:32:20;4.82;;;2.90;;
22240;SDS011;11289;52.524;13.694;2023-06-14T13:34:47;5.63;;;2.35;;
22240;SDS011;11289;52.524;13.694;2023-06-14T13:37:13;5.88;;;2.78;;
22240;SDS011;11289;52.524;13.694;2023-06-14T13:39:39;4.93;;;3.13;;
22240;SDS011;11289;52.524;13.694;2023-06-14T13:42:05;9.57;;;3.17;;
22240;SDS011;11289;52.524;13.694;2023-06-14T13:44:32;3.45;;;2.40;;
22240;SDS011;11289;52.524;13.694;2023-06-14T13:46:58;10.13;;;3.10;;
22240;SDS011;11289;52.524;13.694;2023-06-14T13:49:24;5.35;;;2.88;;
22240;SDS011;11289;52.524;13.694;2023-06-14T13:51:50;6.40;;;2.58;;
22240;SDS011;11289;52.524;13.694;2023-06-14T13:54:17;5.45;;;3.20;;
22240;SDS011;11289;52.524;13.694;2023-06-14T13:56:46;9.52;;;2.90;;
22240;SDS011;11289;52.524;13.694;2023-06-14T13:59:12;6.80;;;2.83;;
22240;SDS011;11289;52.524;13.694;2023-06-14T14:01:38;9.73;;;3.50;;
22240;SDS011;11289;52.524;13.694;2023-06-14T14:04:05;4.93;;;3.28;;
22240;SDS011;11289;52.524;13.694;2023-06-14T14:06:31;4.53;;;2.38;;
22240;SDS011;11289;52.524;13.694;2023-06-14T14:08:57;5.22;;;2.70;;
22240;SDS011;11289;52.524;13.694;2023-06-14T14:11:23;3.97;;;3.22;;
22240;SDS011;11289;52.524;13.694;2023-06-14T14:13:49;6.22;;;2.70;;
22240;SDS011;11289;52.524;13.694;2023-06-14T14:16:15;6.68;;;3.75;;
22240;SDS011;11289;52.524;13.694;2023-06-14T14:18:41;8.23;;;3.17;;
22240;SDS011;11289;52.524;13.694;2023-06-14T14:21:07;8.32;;;2.72;;
22240;SDS011;11289;52.524;13.694;2023-06-14T14:23:33;6.10;;;2.53;;
22240;SDS011;11289;52.524;13.694;2023-06-14T14:25:59;6.93;;;2.13;;
22240;SDS011;11289;52.524;13.694;2023-06-14T14:28:29;6.30;;;2.95;;
22240;SDS011;11289;52.524;13.694;2023-06-14T14:30:55;4.47;;;2.58;;
22240;SDS011;11289;52.524;13.694;2023-06-14T14:33:21;5.88;;;2.97;;
22240;SDS011;11289;52.524;13.694;2023-06-14T14:35:47;6.03;;;2.85;;
22240;SDS011;11289;52.524;13.694;2023-06-14T14:38:13;9.25;;;3.22;;
22240;SDS011;11289;52.524;13.694;2023-06-14T14:40:43;8.15;;;3.08;;
22240;SDS011;11289;52.524;13.694;2023-06-14T14:43:10;6.05;;;3.35;;
22240;SDS011;11289;52.524;13.694;2023-06-14T14:45:36;3.97;;;2.90;;
22240;SDS011;11289;52.524;13.694;2023-06-14T14:48:02;5.07;;;2.05;;
22240;SDS011;11289;52.524;13.694;2023-06-14T14:50:29;11.55;;;2.80;;
22240;SDS011;11289;52.524;13.694;2023-06-14T14:52:55;3.47;;;2.10;;
22240;SDS011;11289;52.524;13.694;2023-06-14T14:55:21;5.95;;;3.10;;
22240;SDS011;11289;52.524;13.694;2023-06-14T14:57:47;4.57;;;2.60;;
22240;SDS011;11289;52.524;13.694;2023-06-14T15:00:13;8.88;;;2.90;;
22240;SDS011;11289;52.524;13.694;2023-06-14T15:02:40;8.45;;;2.83;;
22240;SDS011;11289;52.524;13.694;2023-06-14T15:05:06;6.05;;;2.95;;